Time;durP1;ratioP1;P1;durP2;ratioP2;P2;SDS_P1;SDS_P2;PMS_P1;PMS_P2;Temp;Humidity;BMP_temperature;BMP_pressure;BME280_temperature;BME280_humidity;BME280_pressure;Samples;Min_cycle;Max_cycle;Signal;HPM_P1;HPM_P2
2022/10/11 06:25:06;;;;;;;10.70;7.83;;;11.40;99.90;;;;;;5117182;27;20473;-81
2022/10/11 06:27:32;;;;;;;11.83;8.37;;;11.50;99.90;;;;;;5112974;28;20562;-81
2022/10/11 06:29:58;;;;;;;11.47;7.90;;;11.50;99.90;;;;;;5114300;28;20176;-82
2022/10/11 06:32:24;;;;;;;15.47;8.70;;;11.40;99.90;;;;;;5114057;28;20608;-82
2022/10/11 08:21:42;;;;;;;13.00;6.70;;;14.00;99.90;;;;;;5156893;27;20354;-83
2022/10/11 08:24:08;;;;;;;10.63;6.00;;;13.90;99.90;;;;;;5117238;28;20182;-82
2022/10/11 08:26:34;;;;;;;14.83;6.40;;;13.90;99.90;;;;;;5111627;28;20191;-81
2022/10/11 08:29:03;;;;;;;13.53;6.73;;;14.00;99.90;;;;;;5096609;28;20263;-82
2022/10/11 08:31:30;;;;;;;18.97;7.90;;;14.00;99.90;;;;;;5114082;28;20168;-82
2022/10/11 08:50:34;;;;;;;20.10;9.30;;;14.20;99.90;;;;;;5117579;27;20487;-82
2022/10/11 09:14:15;;;;;;;16.00;8.40;;;14.20;99.90;;;;;;5134542;27;20268;-81
2022/10/11 09:18:56;;;;;;;17.43;8.60;;;14.30;99.90;;;;;;5134355;27;20267;-82
2022/10/11 09:21:30;;;;;;;17.20;7.73;;;14.40;99.90;;;;;;5115108;28;20632;-80
2022/10/11 09:24:26;;;;;;;20.30;9.63;;;14.50;99.90;;;;;;5114895;28;20240;-81
2022/10/11 09:27:08;;;;;;;11.80;7.53;;;14.60;99.90;;;;;;5119383;28;20566;-82
2022/10/11 09:30:00;;;;;;;15.73;7.70;;;14.70;99.90;;;;;;5132908;27;20191;-81
2022/10/11 09:32:32;;;;;;;18.77;7.50;;;14.70;99.90;;;;;;5133056;27;20159;-80
2022/10/11 09:35:15;;;;;;;17.83;7.53;;;14.70;99.90;;;;;;5133155;27;20163;-80
2022/10/11 09:37:51;;;;;;;14.27;7.40;;;14.80;99.90;;;;;;5133991;27;20207;-81
2022/10/11 09:40:28;;;;;;;17.73;7.77;;;14.90;99.90;;;;;;5132623;28;20163;-81
2022/10/11 09:42:54;;;;;;;14.57;7.50;;;15.00;99.90;;;;;;5134476;27;20167;-82
2022/10/11 09:45:21;;;;;;;11.93;7.60;;;15.20;99.90;;;;;;5133457;28;20171;-81
2022/10/11 09:47:49;;;;;;;11.37;7.40;;;15.50;99.90;;;;;;5134603;27;20191;-82
2022/10/11 09:50:16;;;;;;;21.00;7.37;;;15.60;99.90;;;;;;5132755;28;20183;-84
2022/10/11 09:52:50;;;;;;;13.80;7.27;;;15.70;99.90;;;;;;5134256;27;20666;-82
2022/10/11 09:55:32;;;;;;;14.50;6.73;;;16.00;99.90;;;;;;5134139;27;20178;-81
2022/10/11 09:57:58;;;;;;;19.63;8.30;;;16.30;99.90;;;;;;5133343;27;20227;-82
2022/10/11 10:00:27;;;;;;;14.50;7.20;;;16.40;99.90;;;;;;5134999;28;20179;-81
2022/10/11 10:02:56;;;;;;;14.93;6.80;;;16.50;99.90;;;;;;5134443;27;20732;-80
2022/10/11 10:05:31;;;;;;;12.93;6.10;;;16.40;99.90;;;;;;5133545;28;20180;-82
2022/10/11 10:08:09;;;;;;;12.60;6.57;;;16.30;99.90;;;;;;5134596;27;20191;-81
2022/10/11 10:10:38;;;;;;;17.60;6.40;;;16.20;99.90;;;;;;5133899;28;20524;-81
2022/10/11 10:13:18;;;;;;;9.37;5.70;;;16.30;99.90;;;;;;5132654;28;20270;-82
2022/10/11 10:15:50;;;;;;;13.13;5.93;;;16.70;99.90;;;;;;5133537;27;20156;-82
2022/10/11 10:18:49;;;;;;;14.33;6.23;;;17.10;99.90;;;;;;5132033;28;20272;-83
2022/10/11 10:21:15;;;;;;;7.40;4.70;;;17.20;99.90;;;;;;5131724;28;20171;-82
2022/10/11 10:23:41;;;;;;;9.20;5.23;;;16.90;99.90;;;;;;5134068;27;20194;-82
2022/10/11 10:26:16;;;;;;;9.43;5.20;;;16.70;99.90;;;;;;5132058;28;20263;-81
2022/10/11 10:29:08;;;;;;;10.70;5.10;;;16.50;99.90;;;;;;5125605;28;20180;-81
2022/10/11 10:31:55;;;;;;;10.23;5.20;;;16.40;99.90;;;;;;5119596;28;20516;-82
2022/10/11 10:34:35;;;;;;;10.30;6.13;;;16.50;99.90;;;;;;5120542;28;20146;-82
2022/10/11 10:37:46;;;;;;;12.90;6.17;;;16.40;99.90;;;;;;5121306;28;20206;-82
2022/10/11 10:40:19;;;;;;;17.60;7.63;;;16.40;99.90;;;;;;5097765;28;20587;-81
2022/10/11 10:42:45;;;;;;;16.80;7.67;;;16.20;99.90;;;;;;5120004;28;20183;-83
2022/10/11 10:45:16;;;;;;;14.43;5.57;;;16.00;99.90;;;;;;5121037;28;20256;-81
2022/10/11 10:48:06;;;;;;;16.93;6.90;;;15.90;99.90;;;;;;5119867;28;20560;-81
2022/10/11 10:50:49;;;;;;;10.17;5.77;;;15.80;99.90;;;;;;5120789;27;20163;-82
2022/10/11 10:53:38;;;;;;;12.50;6.00;;;15.70;99.90;;;;;;5121067;28;20165;-82
2022/10/11 10:56:24;;;;;;;14.43;6.00;;;15.80;99.90;;;;;;5118990;28;20286;-81
2022/10/11 10:59:07;;;;;;;18.27;8.97;;;15.80;99.90;;;;;;5119841;28;20171;-82
2022/10/11 11:01:49;;;;;;;12.47;6.03;;;15.80;99.90;;;;;;5119144;28;20168;-83
2022/10/11 11:04:33;;;;;;;11.23;4.80;;;15.70;99.90;;;;;;5123178;28;20163;-81
2022/10/11 11:07:24;;;;;;;9.30;4.97;;;15.70;99.90;;;;;;5137365;28;20220;-80
2022/10/11 11:10:05;;;;;;;11.50;4.70;;;15.70;99.90;;;;;;5136457;28;20184;-81
2022/10/11 11:12:48;;;;;;;9.50;4.40;;;15.70;99.90;;;;;;5137281;28;20175;-81
2022/10/11 11:15:44;;;;;;;12.67;4.63;;;15.70;99.90;;;;;;5137311;28;20161;-81
2022/10/11 11:18:25;;;;;;;9.17;4.37;;;15.70;99.90;;;;;;5136184;28;20312;-84
2022/10/11 11:20:56;;;;;;;9.07;4.77;;;15.70;99.90;;;;;;5126495;28;20209;-81
2022/10/11 11:23:29;;;;;;;12.13;4.10;;;15.80;99.90;;;;;;5120767;28;20254;-81
2022/10/11 11:26:13;;;;;;;11.83;3.93;;;15.90;99.90;;;;;;5119695;28;20179;-83
2022/10/11 11:29:01;;;;;;;8.70;4.47;;;16.00;99.90;;;;;;5118776;28;20176;-83
2022/10/11 11:32:11;;;;;;;5.83;3.67;;;16.10;99.90;;;;;;5088930;28;20682;-81
2022/10/11 11:34:52;;;;;;;14.00;4.20;;;16.20;99.90;;;;;;5110799;28;20183;-82
2022/10/11 11:37:36;;;;;;;5.93;3.60;;;16.30;99.90;;;;;;5119889;28;20199;-81
2022/10/11 11:40:30;;;;;;;9.73;4.00;;;16.30;99.90;;;;;;5119421;28;20156;-81
2022/10/11 11:43:02;;;;;;;6.87;5.00;;;16.40;99.90;;;;;;5120213;28;20164;-82
2022/10/11 11:45:56;;;;;;;14.47;6.13;;;16.40;99.90;;;;;;5118473;28;20199;-81
2022/10/11 11:48:24;;;;;;;10.27;5.90;;;16.40;99.90;;;;;;5118498;28;20184;-80
2022/10/11 11:51:08;;;;;;;9.70;6.00;;;16.40;99.90;;;;;;5120047;28;20652;-82
2022/10/11 11:53:49;;;;;;;15.27;5.90;;;16.50;99.90;;;;;;5118703;28;20186;-82
2022/10/11 11:56:26;;;;;;;10.87;5.63;;;16.50;99.90;;;;;;5119486;28;20226;-80
2022/10/11 11:59:12;;;;;;;10.20;5.43;;;16.50;99.90;;;;;;5119965;28;20615;-81
2022/10/11 12:02:17;;;;;;;11.33;5.43;;;16.50;99.90;;;;;;5118215;28;20621;-82
2022/10/11 12:04:44;;;;;;;13.03;5.80;;;16.40;99.90;;;;;;5119901;28;20226;-81
2022/10/11 12:07:17;;;;;;;9.77;5.60;;;16.40;99.90;;;;;;5119263;28;20214;-80
2022/10/11 12:09:49;;;;;;;12.17;6.13;;;16.50;99.90;;;;;;5119369;28;20169;-79
2022/10/11 12:12:36;;;;;;;14.67;6.20;;;17.10;99.90;;;;;;5118216;28;20182;-81
2022/10/11 12:15:08;;;;;;;14.43;5.60;;;17.40;99.90;;;;;;5118769;28;20172;-81
2022/10/11 12:17:57;;;;;;;12.40;5.67;;;17.30;99.90;;;;;;5117648;28;20250;-80
2022/10/11 12:20:39;;;;;;;11.37;6.20;;;17.10;99.90;;;;;;5116220;28;20179;-81
2022/10/11 12:23:30;;;;;;;13.00;6.57;;;17.10;99.90;;;;;;5116949;28;20218;-82
2022/10/11 12:26:16;;;;;;;10.87;5.10;;;17.30;99.90;;;;;;5117392;28;20190;-81
2022/10/11 12:28:42;;;;;;;15.93;5.43;;;17.40;99.90;;;;;;5116147;28;20192;-81
2022/10/11 12:31:24;;;;;;;10.07;5.53;;;17.70;99.90;;;;;;5118643;28;20182;-81
2022/10/11 12:34:00;;;;;;;10.83;5.30;;;18.00;99.90;;;;;;5117494;28;20193;-81
2022/10/11 12:36:35;;;;;;;11.90;4.33;;;18.60;99.90;;;;;;5117042;28;20245;-80
2022/10/11 12:39:19;;;;;;;12.43;4.53;;;18.80;99.90;;;;;;5115770;28;20183;-82
2022/10/11 12:41:50;;;;;;;10.80;4.50;;;18.90;99.90;;;;;;5116458;28;20202;-80
2022/10/11 12:44:25;;;;;;;9.17;4.30;;;18.80;99.90;;;;;;5115790;28;20205;-81
2022/10/11 12:46:53;;;;;;;14.20;4.93;;;18.70;99.90;;;;;;5117002;28;20611;-80
2022/10/11 12:49:28;;;;;;;13.30;4.73;;;18.70;99.90;;;;;;5117706;28;20239;-81
2022/10/11 12:52:20;;;;;;;12.37;4.97;;;18.70;99.90;;;;;;5116678;28;20177;-81
2022/10/11 12:55:20;;;;;;;12.97;4.47;;;19.10;99.90;;;;;;5117394;28;20173;-82
2022/10/11 12:58:23;;;;;;;11.57;4.73;;;19.50;99.90;;;;;;5117737;28;20230;-82
2022/10/11 13:00:53;;;;;;;15.93;5.10;;;19.40;99.90;;;;;;5117854;28;20175;-81
2022/10/11 13:03:41;;;;;;;8.53;4.37;;;18.80;99.90;;;;;;5116752;28;20231;-82
2022/10/11 13:06:16;;;;;;;10.57;4.40;;;18.40;99.90;;;;;;5116305;28;20171;-82
2022/10/11 13:08:47;;;;;;;11.63;3.97;;;18.10;99.90;;;;;;5117775;28;20245;-81
2022/10/11 13:11:23;;;;;;;9.37;3.70;;;17.90;99.90;;;;;;5115440;28;20162;-79
2022/10/11 13:13:57;;;;;;;12.40;4.63;;;17.70;99.90;;;;;;5115272;28;20615;-81
2022/10/11 13:16:27;;;;;;;13.13;4.43;;;17.70;99.90;;;;;;5115211;28;20266;-80
2022/10/11 13:18:56;;;;;;;10.87;3.10;;;17.80;99.90;;;;;;5114207;28;20173;-80
2022/10/11 13:21:38;;;;;;;7.80;3.27;;;18.10;99.90;;;;;;5115728;28;20174;-80
2022/10/11 13:24:15;;;;;;;12.30;3.73;;;18.40;99.90;;;;;;5114032;28;20533;-80
2022/10/11 13:26:44;;;;;;;8.90;3.70;;;19.10;99.90;;;;;;5115406;28;20199;-80
2022/10/11 13:29:23;;;;;;;8.67;3.57;;;19.30;99.90;;;;;;5113518;28;20628;-82
2022/10/11 13:31:49;;;;;;;10.93;3.20;;;19.10;99.90;;;;;;5115211;28;20242;-80
2022/10/11 13:34:15;;;;;;;8.07;3.40;;;18.60;99.90;;;;;;5115227;28;20648;-81
2022/10/11 13:36:41;;;;;;;10.03;3.13;;;18.10;99.90;;;;;;5115323;28;20203;-84
2022/10/11 13:39:33;;;;;;;10.27;3.23;;;17.80;99.90;;;;;;5115818;28;20511;-81
2022/10/11 13:42:01;;;;;;;7.47;3.67;;;17.50;99.90;;;;;;5116234;28;20168;-82
2022/10/11 13:44:27;;;;;;;9.97;3.30;;;17.30;99.90;;;;;;5116109;28;20175;-80
2022/10/11 13:46:52;;;;;;;18.83;3.13;;;17.20;99.90;;;;;;5114628;28;20252;-81
2022/10/11 13:49:30;;;;;;;9.00;3.83;;;17.20;99.90;;;;;;5116046;28;20179;-82
2022/10/11 13:52:01;;;;;;;11.07;3.60;;;17.40;99.90;;;;;;5114868;28;20224;-83
2022/10/11 13:54:57;;;;;;;12.77;4.00;;;17.60;99.90;;;;;;5114679;28;20266;-83
2022/10/11 13:57:34;;;;;;;11.80;4.13;;;17.70;99.90;;;;;;5102871;28;20617;-80
2022/10/11 14:00:01;;;;;;;12.73;4.23;;;17.80;99.90;;;;;;5114703;28;20171;-81
2022/10/11 14:02:28;;;;;;;7.10;3.47;;;17.80;99.90;;;;;;5116181;28;20174;-83
2022/10/11 14:04:54;;;;;;;13.70;4.20;;;17.80;99.90;;;;;;5119523;28;20202;-81
2022/10/11 14:07:35;;;;;;;12.90;4.47;;;17.70;99.90;;;;;;5119915;28;20198;-84
2022/10/11 14:10:00;;;;;;;8.10;3.60;;;17.60;99.90;;;;;;5118745;28;20174;-81
2022/10/11 14:12:30;;;;;;;8.13;3.80;;;17.50;99.90;;;;;;5120232;28;20182;-80
2022/10/11 14:14:57;;;;;;;14.53;5.10;;;17.20;99.90;;;;;;5118648;28;20186;-80
2022/10/11 14:17:43;;;;;;;8.80;3.40;;;17.10;99.90;;;;;;5119950;28;20214;-82
2022/10/11 14:20:44;;;;;;;10.17;3.73;;;17.10;99.90;;;;;;5120665;28;20568;-82
2022/10/11 14:23:12;;;;;;;9.37;3.47;;;17.00;99.90;;;;;;5056973;28;20300;-81
2022/10/11 14:25:37;;;;;;;8.20;2.80;;;16.90;99.90;;;;;;5108064;28;20197;-82
2022/10/11 14:28:04;;;;;;;7.77;2.80;;;16.80;99.90;;;;;;5119124;28;20195;-82
2022/10/11 14:30:30;;;;;;;10.53;3.87;;;16.60;99.90;;;;;;5119608;28;20224;-82
2022/10/11 14:32:59;;;;;;;7.60;3.43;;;16.60;99.90;;;;;;5119820;28;20190;-84
2022/10/11 14:35:28;;;;;;;11.30;4.17;;;16.50;99.90;;;;;;5119408;28;20176;-84
2022/10/11 14:37:53;;;;;;;8.53;3.90;;;16.50;99.90;;;;;;5117587;28;20208;-83
2022/10/11 14:40:26;;;;;;;7.50;4.20;;;16.50;99.90;;;;;;5117947;28;20231;-81
2022/10/11 14:42:52;;;;;;;9.43;3.77;;;16.60;99.90;;;;;;5119048;28;20517;-82
2022/10/11 14:45:20;;;;;;;11.23;4.07;;;16.60;99.90;;;;;;5119054;28;20201;-82
2022/10/11 14:47:46;;;;;;;10.00;3.90;;;16.50;99.90;;;;;;5119043;28;20205;-82
2022/10/11 14:50:36;;;;;;;8.90;3.83;;;16.50;99.90;;;;;;5117545;28;20192;-84
2022/10/11 14:53:02;;;;;;;12.00;3.60;;;16.50;99.90;;;;;;5120136;28;20188;-81
2022/10/11 14:55:29;;;;;;;7.63;3.60;;;16.40;99.90;;;;;;5118865;28;20252;-81
2022/10/11 14:57:55;;;;;;;9.83;3.70;;;16.40;99.90;;;;;;5117987;28;20280;-81
2022/10/11 15:00:27;;;;;;;9.83;3.27;;;16.30;99.90;;;;;;5116603;28;20182;-82
2022/10/11 15:02:54;;;;;;;6.90;3.20;;;16.20;99.90;;;;;;5116714;28;20236;-81
2022/10/11 15:05:22;;;;;;;12.63;3.40;;;16.10;99.90;;;;;;5117183;28;20713;-81
2022/10/11 15:07:48;;;;;;;14.77;3.67;;;16.20;99.90;;;;;;5118154;28;20215;-82
2022/10/11 15:10:34;;;;;;;7.57;3.80;;;16.20;99.90;;;;;;5116901;28;20206;-81
2022/10/11 15:13:01;;;;;;;11.50;3.90;;;16.10;99.90;;;;;;5118464;28;20168;-81
2022/10/11 15:15:29;;;;;;;10.70;4.23;;;16.20;99.90;;;;;;5116830;28;20552;-82
2022/10/11 15:17:57;;;;;;;11.30;4.60;;;16.20;99.90;;;;;;5117803;28;20219;-82
2022/10/11 15:20:37;;;;;;;10.00;4.43;;;16.10;99.90;;;;;;5116803;28;20180;-81
2022/10/11 15:23:03;;;;;;;12.93;5.27;;;16.00;99.90;;;;;;5119106;28;20168;-82
2022/10/11 15:25:29;;;;;;;9.40;5.27;;;15.80;99.90;;;;;;5118465;28;20172;-81
2022/10/11 15:27:56;;;;;;;12.43;6.30;;;15.60;99.90;;;;;;5118999;28;20668;-81
2022/10/11 15:30:25;;;;;;;11.50;5.20;;;15.50;99.90;;;;;;5116598;28;20583;-81
2022/10/11 15:32:52;;;;;;;9.90;4.77;;;15.40;99.90;;;;;;5116923;28;20676;-82
2022/10/11 15:35:19;;;;;;;18.13;6.13;;;15.30;99.90;;;;;;5119040;28;20184;-82
2022/10/11 15:37:45;;;;;;;11.07;5.40;;;15.20;99.90;;;;;;5122785;28;20348;-81
2022/10/11 15:40:21;;;;;;;8.27;5.10;;;15.10;99.90;;;;;;5119799;28;20251;-81
2022/10/11 15:42:47;;;;;;;8.50;4.50;;;15.00;99.90;;;;;;5116421;28;20179;-81
2022/10/11 15:45:13;;;;;;;17.93;5.80;;;14.90;99.90;;;;;;5117935;28;20542;-85
2022/10/11 15:47:39;;;;;;;11.30;5.53;;;14.90;99.90;;;;;;5118364;28;20324;-80
2022/10/11 15:50:38;;;;;;;12.43;5.23;;;14.80;99.90;;;;;;5117652;28;20235;-80
2022/10/11 15:53:06;;;;;;;9.57;5.30;;;14.70;99.90;;;;;;5117138;28;20220;-82
2022/10/11 15:55:34;;;;;;;10.57;5.70;;;14.60;99.90;;;;;;5117333;28;20172;-82
2022/10/11 15:58:00;;;;;;;11.73;5.60;;;14.60;99.90;;;;;;5115745;28;20208;-82
2022/10/11 16:00:27;;;;;;;15.00;5.43;;;14.60;99.90;;;;;;5116021;28;20219;-82
2022/10/11 16:02:53;;;;;;;12.47;6.30;;;14.50;99.90;;;;;;5115920;28;20575;-81
2022/10/11 16:05:20;;;;;;;14.50;6.53;;;14.50;99.90;;;;;;5116213;28;20266;-82
2022/10/11 16:07:46;;;;;;;15.63;7.10;;;14.40;99.90;;;;;;5117377;28;20278;-82
2022/10/11 16:10:12;;;;;;;16.50;6.67;;;14.30;99.90;;;;;;5117469;28;20626;-82
2022/10/11 16:12:38;;;;;;;11.57;6.50;;;14.30;99.90;;;;;;5116270;28;20261;-81
2022/10/11 16:15:04;;;;;;;13.13;5.87;;;14.20;99.90;;;;;;5117211;28;20617;-82
2022/10/11 16:17:30;;;;;;;10.40;5.70;;;14.20;99.90;;;;;;5116037;28;20239;-82
2022/10/11 16:19:56;;;;;;;11.97;6.17;;;14.10;99.90;;;;;;5115813;28;20540;-81
2022/10/11 16:22:22;;;;;;;16.50;7.07;;;14.10;99.90;;;;;;5115338;28;20173;-82
2022/10/11 16:24:48;;;;;;;14.73;6.63;;;14.00;99.90;;;;;;5115174;28;20176;-82
2022/10/11 16:27:14;;;;;;;15.90;7.60;;;13.90;99.90;;;;;;5114965;28;20206;-84
2022/10/11 16:29:40;;;;;;;17.73;9.10;;;13.90;99.90;;;;;;5116437;28;20682;-82
2022/10/11 16:32:06;;;;;;;13.77;9.10;;;13.90;99.90;;;;;;5120811;28;20228;-83
2022/10/11 16:34:33;;;;;;;19.50;9.07;;;13.80;99.90;;;;;;5121256;28;20181;-82
2022/10/11 16:36:58;;;;;;;18.47;8.03;;;13.80;99.90;;;;;;5118979;28;20268;-83
2022/10/11 16:39:24;;;;;;;15.93;8.73;;;13.80;99.90;;;;;;5120562;28;20167;-82
2022/10/11 16:41:50;;;;;;;18.67;9.30;;;13.80;99.90;;;;;;5118869;28;20212;-83
2022/10/11 16:44:18;;;;;;;13.90;8.77;;;13.80;99.90;;;;;;5119180;28;20176;-82
2022/10/11 16:46:48;;;;;;;16.10;9.13;;;13.80;99.90;;;;;;5118147;28;20233;-83
2022/10/11 16:49:16;;;;;;;18.00;9.23;;;13.80;99.90;;;;;;5119518;28;20255;-84
2022/10/11 16:51:42;;;;;;;22.37;8.33;;;13.70;99.90;;;;;;5118621;28;20749;-82
2022/10/11 16:54:08;;;;;;;18.63;11.67;;;13.70;99.90;;;;;;5119042;28;20270;-83
2022/10/11 16:56:33;;;;;;;20.20;16.87;;;13.70;99.90;;;;;;5118904;28;20226;-82
2022/10/11 16:58:59;;;;;;;19.57;9.63;;;13.70;99.90;;;;;;5117725;28;20644;-82
2022/10/11 17:01:25;;;;;;;19.23;9.53;;;13.70;99.90;;;;;;5117292;28;20282;-84
2022/10/11 17:03:51;;;;;;;14.43;8.33;;;13.70;99.90;;;;;;5119215;28;20173;-82
2022/10/11 17:06:18;;;;;;;17.53;7.93;;;13.70;99.90;;;;;;5117893;28;20172;-84
2022/10/11 17:08:44;;;;;;;12.43;7.20;;;13.60;99.90;;;;;;5119008;28;20207;-84
2022/10/11 17:11:09;;;;;;;20.13;9.10;;;13.70;99.90;;;;;;5119485;28;20540;-83
2022/10/11 17:13:35;;;;;;;9.83;7.33;;;13.60;99.90;;;;;;5119630;28;20178;-83
2022/10/11 17:16:01;;;;;;;14.30;8.23;;;13.60;99.90;;;;;;5120551;28;20180;-83
2022/10/11 17:18:27;;;;;;;13.70;7.53;;;13.60;99.90;;;;;;5120343;28;20213;-83
2022/10/11 17:21:12;;;;;;;15.20;7.70;;;13.60;99.90;;;;;;5120231;28;20181;-82
2022/10/11 17:23:39;;;;;;;21.97;9.57;;;13.60;99.90;;;;;;5120687;28;20168;-83
2022/10/11 17:26:07;;;;;;;15.90;8.20;;;13.60;99.90;;;;;;5119945;28;20175;-82
2022/10/11 17:28:33;;;;;;;12.40;7.90;;;13.60;99.90;;;;;;5118078;27;20545;-82
2022/10/11 17:31:00;;;;;;;15.27;7.47;;;13.60;99.90;;;;;;5119426;28;20175;-81
2022/10/11 17:33:26;;;;;;;13.70;7.63;;;13.50;99.90;;;;;;5117755;28;20266;-84
2022/10/11 17:35:53;;;;;;;13.80;7.03;;;13.50;99.90;;;;;;5117448;28;20217;-83
2022/10/11 17:38:19;;;;;;;14.33;6.80;;;13.50;99.90;;;;;;5119265;28;20203;-84
2022/10/11 17:40:46;;;;;;;14.53;8.07;;;13.50;99.90;;;;;;5123392;28;20171;-82
2022/10/11 17:43:14;;;;;;;18.33;8.40;;;13.50;99.90;;;;;;5121266;28;20176;-82
2022/10/11 17:45:40;;;;;;;15.47;9.10;;;13.50;99.90;;;;;;5121372;28;20172;-81
2022/10/11 17:48:06;;;;;;;14.67;10.17;;;13.50;99.90;;;;;;5123073;28;20195;-82
2022/10/11 17:50:32;;;;;;;15.17;8.97;;;13.40;99.90;;;;;;5123574;28;20205;-83
2022/10/11 17:52:58;;;;;;;14.37;10.10;;;13.40;99.90;;;;;;5122445;28;20182;-83
2022/10/11 17:55:24;;;;;;;16.13;8.60;;;13.30;99.90;;;;;;5122110;28;20168;-81
2022/10/11 17:57:49;;;;;;;10.20;7.50;;;13.40;99.90;;;;;;5121129;28;20209;-81
2022/10/11 18:00:15;;;;;;;13.80;7.40;;;13.30;99.90;;;;;;5122859;28;20179;-82
2022/10/11 18:02:41;;;;;;;14.00;7.50;;;13.30;99.90;;;;;;5123122;28;20175;-82
2022/10/11 18:05:07;;;;;;;12.57;7.17;;;13.30;99.90;;;;;;5122837;28;20678;-83
2022/10/11 18:07:33;;;;;;;17.27;8.23;;;13.30;99.90;;;;;;5120758;28;20290;-82
2022/10/11 18:09:59;;;;;;;12.20;7.97;;;13.30;99.90;;;;;;5121755;28;20211;-82
2022/10/11 18:12:25;;;;;;;16.23;10.40;;;13.20;99.90;;;;;;5120905;28;20180;-81
2022/10/11 18:14:51;;;;;;;12.40;8.47;;;13.20;99.90;;;;;;5120683;28;20179;-82
2022/10/11 18:17:17;;;;;;;13.10;7.20;;;13.30;99.90;;;;;;5120554;28;20247;-82
2022/10/11 18:19:43;;;;;;;13.63;7.80;;;13.20;99.90;;;;;;5121915;28;20237;-81
2022/10/11 18:22:09;;;;;;;9.93;7.30;;;13.20;99.90;;;;;;5120976;28;20222;-82
2022/10/11 18:24:35;;;;;;;13.27;7.83;;;13.20;99.90;;;;;;5121177;28;20547;-81
2022/10/11 18:27:01;;;;;;;13.60;8.30;;;13.10;99.90;;;;;;5121612;28;20259;-83
2022/10/11 18:29:27;;;;;;;17.23;7.33;;;13.10;99.90;;;;;;5121678;28;20190;-81
2022/10/11 18:31:53;;;;;;;17.60;7.97;;;13.10;99.90;;;;;;5120101;28;20176;-82
2022/10/11 18:34:18;;;;;;;13.03;8.70;;;13.10;99.90;;;;;;5120245;28;20686;-81
2022/10/11 18:36:44;;;;;;;16.03;8.33;;;13.00;99.90;;;;;;5121336;28;20337;-81
2022/10/11 18:39:12;;;;;;;11.03;8.37;;;13.00;99.90;;;;;;5119764;28;20273;-81
2022/10/11 18:41:40;;;;;;;15.43;8.63;;;12.90;99.90;;;;;;5121100;28;20174;-82
2022/10/11 18:44:07;;;;;;;12.27;8.40;;;12.90;99.90;;;;;;5120283;28;20172;-81
2022/10/11 18:46:34;;;;;;;12.73;8.87;;;12.90;99.90;;;;;;5120590;28;20190;-82
2022/10/11 18:49:02;;;;;;;15.20;9.03;;;12.90;99.90;;;;;;5120037;28;20170;-81
2022/10/11 18:51:31;;;;;;;18.93;8.63;;;12.80;99.90;;;;;;5120537;28;20174;-83
2022/10/11 18:53:57;;;;;;;11.70;8.60;;;12.80;99.90;;;;;;5120598;28;20581;-82
2022/10/11 18:56:25;;;;;;;16.03;9.33;;;12.80;99.90;;;;;;5120611;28;20217;-81
2022/10/11 18:58:52;;;;;;;18.87;9.27;;;12.70;99.90;;;;;;5119623;28;20175;-81
2022/10/11 19:01:30;;;;;;;16.20;9.70;;;12.70;99.90;;;;;;5119819;28;20180;-81
2022/10/11 19:03:58;;;;;;;16.57;9.90;;;12.60;99.90;;;;;;5119126;28;20224;-81
2022/10/11 19:06:27;;;;;;;16.23;9.60;;;12.60;99.90;;;;;;5119647;28;20684;-81
2022/10/11 19:09:01;;;;;;;14.43;9.53;;;12.50;99.90;;;;;;5120175;28;20629;-81
2022/10/11 19:11:28;;;;;;;17.00;11.30;;;12.50;99.90;;;;;;5121981;28;20175;-81
2022/10/11 19:13:56;;;;;;;19.97;11.93;;;12.40;99.90;;;;;;5120945;28;20175;-82
2022/10/11 19:16:21;;;;;;;24.03;15.47;;;12.40;99.90;;;;;;5121341;28;20199;-82
2022/10/11 19:18:48;;;;;;;25.03;14.20;;;12.40;99.90;;;;;;5119974;28;20208;-83
2022/10/11 19:21:14;;;;;;;15.93;13.03;;;12.40;99.90;;;;;;5121394;28;20172;-82
2022/10/11 19:23:42;;;;;;;23.57;13.40;;;12.40;99.90;;;;;;5120842;28;20287;-82
2022/10/11 19:26:13;;;;;;;28.47;17.40;;;12.40;99.90;;;;;;5122207;28;20255;-83
2022/10/11 19:28:39;;;;;;;28.00;19.83;;;12.30;99.90;;;;;;5118704;28;20168;-83
2022/10/11 19:31:07;;;;;;;44.13;29.00;;;12.30;99.90;;;;;;5123625;28;20201;-81
2022/10/11 19:33:33;;;;;;;47.93;32.20;;;12.30;99.90;;;;;;5118472;28;20183;-82
2022/10/11 19:36:03;;;;;;;40.67;29.53;;;12.20;99.90;;;;;;5118503;28;20182;-82
2022/10/11 19:38:30;;;;;;;40.20;27.70;;;12.10;99.90;;;;;;5118605;28;20340;-81
2022/10/11 19:40:56;;;;;;;39.23;25.77;;;12.10;99.90;;;;;;5120096;28;20202;-82
2022/10/11 19:43:22;;;;;;;41.63;26.40;;;12.10;99.90;;;;;;5118398;28;20630;-82
2022/10/11 19:45:48;;;;;;;36.10;23.10;;;12.00;99.90;;;;;;5119620;28;20171;-82
2022/10/11 19:48:14;;;;;;;26.63;17.33;;;12.00;99.90;;;;;;5119468;28;20195;-83
2022/10/11 19:50:40;;;;;;;26.70;17.50;;;12.00;99.90;;;;;;5118526;28;20187;-82
2022/10/11 19:53:06;;;;;;;25.60;16.93;;;11.90;99.90;;;;;;5119458;28;20179;-81
2022/10/11 19:55:34;;;;;;;37.03;24.40;;;11.90;99.90;;;;;;5119080;28;20236;-83
2022/10/11 19:58:00;;;;;;;36.27;23.73;;;11.90;99.90;;;;;;5118246;28;20195;-84
2022/10/11 20:00:25;;;;;;;32.77;21.20;;;11.90;99.90;;;;;;5118639;28;20164;-83
2022/10/11 20:02:51;;;;;;;31.67;19.40;;;11.90;99.90;;;;;;5116998;28;20175;-83
2022/10/11 20:05:16;;;;;;;32.70;20.67;;;11.90;99.90;;;;;;5118324;28;20178;-83
2022/10/11 20:07:42;;;;;;;42.97;31.83;;;12.00;99.90;;;;;;5116555;28;20227;-85
2022/10/11 20:10:08;;;;;;;55.93;34.27;;;12.00;99.90;;;;;;5117514;28;20179;-84
2022/10/11 20:12:34;;;;;;;42.23;26.53;;;12.00;99.90;;;;;;5117502;28;20179;-84
2022/10/11 20:15:02;;;;;;;46.13;29.60;;;12.10;99.90;;;;;;5116739;28;20190;-83
2022/10/11 20:17:47;;;;;;;34.43;23.43;;;12.10;99.90;;;;;;5117409;28;20200;-82
2022/10/11 20:20:13;;;;;;;39.73;26.77;;;12.10;99.90;;;;;;5116816;28;20177;-84
2022/10/11 20:22:39;;;;;;;31.20;21.23;;;12.10;99.90;;;;;;5115426;28;20268;-83
2022/10/11 20:25:05;;;;;;;28.33;20.50;;;12.10;99.90;;;;;;5115951;28;20634;-82
2022/10/11 20:27:31;;;;;;;24.57;17.63;;;12.10;99.90;;;;;;5115270;28;20282;-82
2022/10/11 20:29:56;;;;;;;26.63;17.67;;;12.10;99.90;;;;;;5116960;28;20210;-83
2022/10/11 20:32:22;;;;;;;22.80;16.07;;;12.10;99.90;;;;;;5115913;28;20266;-82
2022/10/11 20:34:48;;;;;;;23.00;15.83;;;12.10;99.90;;;;;;5116481;28;20173;-84
2022/10/11 20:37:14;;;;;;;28.63;16.37;;;12.20;99.90;;;;;;5116270;28;20199;-84
2022/10/11 20:39:39;;;;;;;23.37;16.73;;;12.20;99.90;;;;;;5115476;28;20618;-84
2022/10/11 20:42:05;;;;;;;23.30;16.13;;;12.20;99.90;;;;;;5117266;28;20198;-84
2022/10/11 20:44:30;;;;;;;28.97;20.13;;;12.20;99.90;;;;;;5117156;28;20171;-83
2022/10/11 20:46:56;;;;;;;36.97;17.13;;;12.20;99.90;;;;;;5116604;28;20195;-83
2022/10/11 20:49:22;;;;;;;24.67;17.07;;;12.10;99.90;;;;;;5116728;28;20171;-84
2022/10/11 20:51:48;;;;;;;21.47;16.00;;;12.20;99.90;;;;;;5117848;28;20180;-83
2022/10/11 20:54:14;;;;;;;20.63;13.43;;;12.20;99.90;;;;;;5116190;28;20637;-84
2022/10/11 20:56:39;;;;;;;20.80;13.47;;;12.20;99.90;;;;;;5115760;28;20217;-84
2022/10/11 20:59:06;;;;;;;17.60;13.20;;;12.20;99.90;;;;;;5116645;28;20175;-85
2022/10/11 21:01:38;;;;;;;18.67;14.00;;;12.20;99.90;;;;;;5116595;28;20206;-83
2022/10/11 21:04:05;;;;;;;17.90;13.47;;;12.20;99.90;;;;;;5115669;28;20171;-83
2022/10/11 21:06:32;;;;;;;23.53;13.73;;;12.20;99.90;;;;;;5115649;28;20191;-84
2022/10/11 21:08:58;;;;;;;22.10;14.00;;;12.20;99.90;;;;;;5115879;28;20663;-84
2022/10/11 21:11:25;;;;;;;17.53;13.33;;;12.20;99.90;;;;;;5117457;28;20168;-84
2022/10/11 21:13:59;;;;;;;18.13;13.87;;;12.10;99.90;;;;;;5116254;28;20178;-83
2022/10/11 21:16:26;;;;;;;21.57;14.03;;;12.10;99.90;;;;;;5116620;28;20202;-82
2022/10/11 21:18:54;;;;;;;20.40;14.93;;;12.10;99.90;;;;;;5116349;28;20183;-82
2022/10/11 21:21:22;;;;;;;22.80;14.93;;;12.00;99.90;;;;;;5116807;28;20191;-83
2022/10/11 21:23:47;;;;;;;20.27;14.70;;;12.00;99.90;;;;;;5115929;28;20175;-84
2022/10/11 21:26:16;;;;;;;19.87;14.57;;;11.90;99.90;;;;;;5116035;28;20178;-82
2022/10/11 21:28:44;;;;;;;24.87;15.03;;;11.90;99.90;;;;;;5116547;28;20179;-83
2022/10/11 21:31:15;;;;;;;22.37;15.77;;;11.90;99.90;;;;;;5116213;28;20175;-84
2022/10/11 21:33:42;;;;;;;25.10;16.63;;;11.90;99.90;;;;;;5118169;28;20633;-83
2022/10/11 21:36:14;;;;;;;28.53;17.57;;;11.80;99.90;;;;;;5117451;28;20179;-84
2022/10/11 21:38:40;;;;;;;26.83;18.10;;;11.70;99.90;;;;;;5117995;28;20298;-84
2022/10/11 21:41:08;;;;;;;26.17;17.77;;;11.70;99.90;;;;;;5117966;28;20182;-85
